createdAt,value
2022-09-03T00:00:02.393Z,21.38
2022-09-03T00:03:08.123Z,20.83
2022-09-03T00:05:47.543Z,20.87
2022-09-03T00:08:26.681Z,21.24
2022-09-03T00:10:59.656Z,21.92
2022-09-03T00:13:31.365Z,21.93
2022-09-03T00:16:00.011Z,22.34
2022-09-03T00:18:32.344Z,21.83
2022-09-03T00:21:08.870Z,21.32
2022-09-03T00:23:39.112Z,21.84
2022-09-03T00:26:12.550Z,21.33
2022-09-03T00:28:43.782Z,21.05
2022-09-03T00:31:40.380Z,21.28
2022-09-03T00:34:16.018Z,21.26
2022-09-03T00:36:44.924Z,21.15
2022-09-03T00:39:15.306Z,21.06
2022-09-03T00:42:39.745Z,21.17
2022-09-03T00:45:34.085Z,21.01
2022-09-03T00:48:27.800Z,20.93
2022-09-03T00:51:03.169Z,21.00
2022-09-03T00:53:55.070Z,20.84
2022-09-03T00:56:44.822Z,21.14
2022-09-03T00:59:25.358Z,21.00
2022-09-03T01:02:17.607Z,20.90
2022-09-03T01:05:00.135Z,21.17
2022-09-03T01:07:40.719Z,20.70
2022-09-03T01:10:19.357Z,20.50
2022-09-03T01:13:20.708Z,20.45
2022-09-03T01:15:50.602Z,20.86
2022-09-03T01:18:30.909Z,20.31
2022-09-03T01:21:06.886Z,20.70
2022-09-03T01:23:57.072Z,21.17
2022-09-03T01:26:52.048Z,21.54
2022-09-03T01:29:35.432Z,22.06
2022-09-03T01:32:14.090Z,21.73
2022-09-03T01:35:05.200Z,21.30
2022-09-03T01:37:35.803Z,21.64
2022-09-03T01:40:19.005Z,21.26
2022-09-03T01:43:07.078Z,21.34
2022-09-03T01:46:00.509Z,20.73
2022-09-03T01:48:50.741Z,20.70
2022-09-03T01:51:23.941Z,21.03
2022-09-03T01:54:31.348Z,21.77
2022-09-03T01:57:35.657Z,20.57
2022-09-03T02:00:13.429Z,21.13
2022-09-03T02:02:43.688Z,20.73
2022-09-03T02:05:15.029Z,20.59
2022-09-03T02:07:46.963Z,20.58
2022-09-03T02:10:22.054Z,21.53
2022-09-03T02:12:52.866Z,21.22
2022-09-03T02:15:22.334Z,21.54
2022-09-03T02:17:50.422Z,21.54
2022-09-03T02:20:21.135Z,20.85
2022-09-03T02:22:49.232Z,20.89
2022-09-03T02:25:17.309Z,21.04
2022-09-03T02:27:45.004Z,21.09
2022-09-03T02:30:12.426Z,21.11
2022-09-03T02:32:39.376Z,20.89
2022-09-03T02:35:07.046Z,20.21
2022-09-03T02:37:34.017Z,20.90
2022-09-03T02:40:01.262Z,21.07
2022-09-03T02:42:28.249Z,20.67
2022-09-03T02:45:03.148Z,20.59
2022-09-03T02:47:32.437Z,20.20
2022-09-03T02:49:59.391Z,20.21
2022-09-03T02:52:26.418Z,20.50
2022-09-03T02:54:53.328Z,20.90
2022-09-03T02:57:27.465Z,21.14
2022-09-03T02:59:55.223Z,20.77
2022-09-03T03:02:22.207Z,20.53
2022-09-03T03:04:49.505Z,20.44
2022-09-03T03:07:16.516Z,19.47
2022-09-03T03:09:44.249Z,19.89
2022-09-03T03:12:11.151Z,19.79
2022-09-03T03:14:38.157Z,20.27
2022-09-03T03:17:05.280Z,20.26
2022-09-03T03:19:32.227Z,20.13
2022-09-03T03:21:59.255Z,20.46
2022-09-03T03:24:26.194Z,20.75
2022-09-03T03:26:58.252Z,20.50
2022-09-03T03:29:25.456Z,19.44
2022-09-03T03:31:52.950Z,19.37
2022-09-03T03:34:19.900Z,19.86
2022-09-03T03:36:46.842Z,20.41
2022-09-03T03:39:14.742Z,19.54
2022-09-03T03:41:41.901Z,20.09
2022-09-03T03:44:09.227Z,19.75
2022-09-03T03:46:38.502Z,20.20
2022-09-03T03:49:06.919Z,19.55
2022-09-03T03:51:34.415Z,19.60
2022-09-03T03:54:05.059Z,19.46
2022-09-03T03:56:32.918Z,19.70
2022-09-03T03:59:00.128Z,19.65
2022-09-03T04:01:28.153Z,19.98
2022-09-03T04:03:56.290Z,19.86
2022-09-03T04:06:24.005Z,19.84
2022-09-03T04:08:51.025Z,19.33
2022-09-03T04:11:20.002Z,19.26
2022-09-03T04:13:47.471Z,19.46
2022-09-03T04:16:19.052Z,19.06
2022-09-03T04:18:46.492Z,18.88
2022-09-03T04:21:21.640Z,19.17
2022-09-03T04:23:50.076Z,19.19
2022-09-03T04:26:19.943Z,19.04
2022-09-03T04:28:47.086Z,18.76
2022-09-03T04:31:16.275Z,18.55
2022-09-03T04:33:43.374Z,18.44
2022-09-03T04:36:11.411Z,19.68
2022-09-03T04:38:41.609Z,20.03
2022-09-03T04:41:10.454Z,20.14
2022-09-03T04:43:37.654Z,20.03
2022-09-03T04:46:16.180Z,19.69
2022-09-03T04:48:44.817Z,19.23
2022-09-03T04:51:15.092Z,18.10
2022-09-03T04:53:43.783Z,18.39
2022-09-03T04:56:18.646Z,19.51
2022-09-03T04:58:45.984Z,20.51
2022-09-03T05:01:18.332Z,20.30
2022-09-03T05:03:45.452Z,20.14
2022-09-03T05:06:13.238Z,19.37
2022-09-03T05:08:40.594Z,19.47
2022-09-03T05:11:08.634Z,19.50
2022-09-03T05:13:37.223Z,20.16
2022-09-03T05:16:09.288Z,21.21
2022-09-03T05:18:36.823Z,21.61
2022-09-03T05:21:08.901Z,22.55
2022-09-03T05:23:41.101Z,23.82
2022-09-03T05:26:10.953Z,24.62
2022-09-03T05:28:40.426Z,25.35
2022-09-03T05:31:12.790Z,26.28
2022-09-03T05:33:42.606Z,27.15
2022-09-03T05:36:12.209Z,27.34
2022-09-03T05:38:39.816Z,27.99
2022-09-03T05:41:09.849Z,28.73
2022-09-03T05:43:37.183Z,28.95
2022-09-03T05:46:06.822Z,29.37
2022-09-03T05:48:35.725Z,30.29
2022-09-03T05:51:04.725Z,29.19
2022-09-03T05:53:34.291Z,30.00
2022-09-03T05:56:03.002Z,31.15
2022-09-03T05:58:34.112Z,31.95
2022-09-03T06:01:03.263Z,31.69
2022-09-03T06:03:30.231Z,31.33
2022-09-03T06:05:57.675Z,31.20
2022-09-03T06:08:24.611Z,31.29
2022-09-03T06:10:51.911Z,31.58
2022-09-03T06:13:18.844Z,31.96
2022-09-03T06:15:45.782Z,30.73
2022-09-03T06:18:12.670Z,31.60
2022-09-03T06:20:39.623Z,31.56
2022-09-03T06:23:06.575Z,30.59
2022-09-03T06:25:33.534Z,30.93
2022-09-03T06:28:00.449Z,30.86
2022-09-03T06:30:27.468Z,30.92
2022-09-03T06:32:54.460Z,31.18
2022-09-03T06:35:21.365Z,30.92
2022-09-03T06:37:48.255Z,31.23
2022-09-03T06:40:20.765Z,31.30
2022-09-03T06:42:56.512Z,30.48
2022-09-03T06:45:23.425Z,31.12
2022-09-03T06:47:50.344Z,30.79
2022-09-03T06:50:18.408Z,29.49
2022-09-03T06:52:45.301Z,29.65
2022-09-03T06:55:12.245Z,29.62
2022-09-03T06:57:39.133Z,30.59
2022-09-03T07:00:07.291Z,30.46
2022-09-03T07:02:34.220Z,28.97
2022-09-03T07:05:01.398Z,29.70
2022-09-03T07:07:28.287Z,30.79
2022-09-03T07:09:55.242Z,29.82
2022-09-03T07:12:22.162Z,29.99
2022-09-03T07:14:51.193Z,29.79
2022-09-03T07:17:18.229Z,29.90
2022-09-03T07:19:45.240Z,30.41
2022-09-03T07:22:12.315Z,30.07
2022-09-03T07:24:39.463Z,30.92
2022-09-03T07:27:08.383Z,30.38
2022-09-03T07:29:36.726Z,30.50
2022-09-03T07:32:04.022Z,30.47
2022-09-03T07:34:30.962Z,29.34
2022-09-03T07:36:57.851Z,29.15
2022-09-03T07:39:24.895Z,29.31
2022-09-03T07:41:51.956Z,29.66
2022-09-03T07:44:22.998Z,29.07
2022-09-03T07:46:51.634Z,29.47
2022-09-03T07:49:20.400Z,29.28
2022-09-03T07:51:50.949Z,29.83
2022-09-03T07:54:18.003Z,29.64
2022-09-03T07:56:44.935Z,29.46
2022-09-03T07:59:12.240Z,29.78
2022-09-03T08:01:41.600Z,29.89
2022-09-03T08:04:09.405Z,29.49
2022-09-03T08:06:37.814Z,29.79
2022-09-03T08:09:07.484Z,30.20
2022-09-03T08:11:38.213Z,30.28
2022-09-03T08:14:10.449Z,30.16
2022-09-03T08:16:42.531Z,30.33
2022-09-03T08:19:10.622Z,29.89
2022-09-03T08:21:37.904Z,30.14
2022-09-03T08:24:05.054Z,29.62
2022-09-03T08:26:37.581Z,29.86
2022-09-03T08:29:05.638Z,29.92
2022-09-03T08:31:33.211Z,29.43
2022-09-03T08:34:07.034Z,29.50
2022-09-03T08:36:36.461Z,29.74
2022-09-03T08:39:08.265Z,30.57
2022-09-03T08:41:44.650Z,30.61
2022-09-03T08:44:25.165Z,30.56
2022-09-03T08:46:52.171Z,31.00
2022-09-03T08:49:33.217Z,30.55
2022-09-03T08:52:03.691Z,30.95
2022-09-03T08:54:32.073Z,30.48
2022-09-03T08:57:02.178Z,30.74
2022-09-03T08:59:32.910Z,31.63
2022-09-03T09:02:12.169Z,32.38
2022-09-03T09:05:03.871Z,32.33
2022-09-03T09:07:53.613Z,31.72
2022-09-03T09:10:47.733Z,31.10
2022-09-03T09:13:24.682Z,31.31
2022-09-03T09:16:18.970Z,31.30
2022-09-03T09:19:11.723Z,30.94
2022-09-03T09:21:46.249Z,30.89
2022-09-03T09:24:43.076Z,30.51
2022-09-03T09:27:15.409Z,30.87
2022-09-03T09:29:44.905Z,30.85
2022-09-03T09:32:13.202Z,31.27
2022-09-03T09:34:41.497Z,31.05
2022-09-03T09:37:16.122Z,30.81
2022-09-03T09:39:58.547Z,30.71
2022-09-03T09:42:26.177Z,30.87
2022-09-03T09:44:53.320Z,31.17
2022-09-03T09:47:26.787Z,31.10
2022-09-03T09:50:00.383Z,30.88
2022-09-03T09:52:29.710Z,31.26
2022-09-03T09:55:08.553Z,31.06
2022-09-03T09:57:37.448Z,30.79
2022-09-03T10:00:12.440Z,31.41
2022-09-03T10:02:51.039Z,31.93
2022-09-03T10:05:26.618Z,31.90
2022-09-03T10:08:01.491Z,31.41
2022-09-03T10:10:29.636Z,31.17
2022-09-03T10:13:36.548Z,31.59
2022-09-03T10:16:28.186Z,31.73
2022-09-03T10:19:15.714Z,31.48
2022-09-03T10:22:06.206Z,29.72
2022-09-03T10:24:58.510Z,30.28
2022-09-03T10:27:26.133Z,31.32
2022-09-03T10:29:53.633Z,31.04
2022-09-03T10:32:27.505Z,30.81
2022-09-03T10:35:30.879Z,31.46
2022-09-03T10:38:19.367Z,31.98
2022-09-03T10:41:02.757Z,32.25
2022-09-03T10:43:36.798Z,31.21
2022-09-03T10:46:08.400Z,31.56
2022-09-03T10:49:01.553Z,31.71
2022-09-03T10:51:35.811Z,32.49
2022-09-03T10:54:20.863Z,31.30
2022-09-03T10:57:16.577Z,30.75
2022-09-03T11:00:06.592Z,30.02
2022-09-03T11:03:01.198Z,29.73
2022-09-03T11:05:31.751Z,30.17
2022-09-03T11:08:02.847Z,30.93
2022-09-03T11:10:32.408Z,31.52
2022-09-03T11:13:13.465Z,30.21
2022-09-03T11:15:42.787Z,30.13
2022-09-03T11:18:28.338Z,30.77
2022-09-03T11:21:02.102Z,31.58
2022-09-03T11:23:33.712Z,31.14
2022-09-03T11:26:05.257Z,30.63
2022-09-03T11:28:53.424Z,29.37
2022-09-03T11:31:38.663Z,29.61
2022-09-03T11:34:14.108Z,28.70
2022-09-03T11:36:50.402Z,29.30
2022-09-03T11:39:23.510Z,29.31
2022-09-03T11:42:04.710Z,28.34
2022-09-03T11:44:42.703Z,28.71
2022-09-03T11:47:26.010Z,30.19
2022-09-03T11:49:54.003Z,29.68
2022-09-03T11:52:29.069Z,28.90
2022-09-03T11:54:56.284Z,29.06
2022-09-03T11:57:30.892Z,29.30
2022-09-03T12:00:13.566Z,29.70
2022-09-03T12:02:56.770Z,29.71
2022-09-03T12:05:51.830Z,29.74
2022-09-03T12:08:45.138Z,29.25
2022-09-03T12:11:53.804Z,30.34
2022-09-03T12:14:23.915Z,29.69
2022-09-03T12:17:09.370Z,28.46
2022-09-03T12:19:51.538Z,29.36
2022-09-03T12:22:19.629Z,28.85
2022-09-03T12:24:48.321Z,29.64
2022-09-03T12:27:24.434Z,29.35
2022-09-03T12:30:02.329Z,29.08
2022-09-03T12:32:37.469Z,29.47
2022-09-03T12:38:18.250Z,29.90
2022-09-03T12:43:42.407Z,29.64
2022-09-03T12:46:17.895Z,29.74
2022-09-03T12:51:52.311Z,28.49
2022-09-03T12:54:22.359Z,29.15
2022-09-03T12:56:55.623Z,28.64
2022-09-03T12:59:22.697Z,28.06
2022-09-03T13:01:53.651Z,27.94
2022-09-03T13:04:27.100Z,28.31
2022-09-03T13:06:57.624Z,28.44
2022-09-03T13:09:27.062Z,28.27
2022-09-03T13:11:55.719Z,28.50
2022-09-03T13:14:22.951Z,28.28
2022-09-03T13:17:08.675Z,29.20
2022-09-03T13:19:59.897Z,28.87
2022-09-03T13:23:13.785Z,29.16
2022-09-03T13:26:08.882Z,28.76
2022-09-03T13:29:13.895Z,29.18
2022-09-03T13:31:54.021Z,28.42
2022-09-03T13:34:25.665Z,28.18
2022-09-03T13:36:59.053Z,28.26
2022-09-03T13:39:29.958Z,28.77
2022-09-03T13:42:12.201Z,28.70
2022-09-03T13:44:47.910Z,28.94
2022-09-03T13:47:28.394Z,28.48
2022-09-03T13:50:23.225Z,27.88
2022-09-03T13:53:07.075Z,28.15
2022-09-03T13:55:50.451Z,27.13
2022-09-03T13:58:30.784Z,27.56
2022-09-03T14:00:58.594Z,28.07
2022-09-03T14:03:35.815Z,28.69
2022-09-03T14:06:21.983Z,28.59
2022-09-03T14:09:21.702Z,27.72
2022-09-03T14:12:21.562Z,28.00
2022-09-03T14:14:59.883Z,28.62
2022-09-03T14:18:23.890Z,28.95
2022-09-03T14:21:20.021Z,28.75
2022-09-03T14:24:14.731Z,28.52
2022-09-03T14:26:51.980Z,28.56
2022-09-03T14:29:23.923Z,29.09
2022-09-03T14:32:24.408Z,29.05
2022-09-03T14:35:35.638Z,28.77
2022-09-03T14:38:11.772Z,28.86
2022-09-03T14:40:50.619Z,28.63
2022-09-03T14:43:27.698Z,28.71
2022-09-03T14:46:15.487Z,28.70
2022-09-03T14:49:07.278Z,28.25
2022-09-03T14:52:08.092Z,28.33
2022-09-03T14:54:47.062Z,28.08
2022-09-03T14:57:30.515Z,28.44
2022-09-03T15:00:18.666Z,28.85
2022-09-03T15:03:31.621Z,28.77
2022-09-03T15:06:15.741Z,28.46
2022-09-03T15:08:57.857Z,28.58
2022-09-03T15:11:27.960Z,29.02
2022-09-03T15:14:00.585Z,28.22
2022-09-03T15:16:40.810Z,28.97
2022-09-03T15:19:14.093Z,28.58
2022-09-03T15:22:18.887Z,27.55
2022-09-03T15:24:53.924Z,27.72
2022-09-03T15:27:52.746Z,27.89
2022-09-03T15:30:21.074Z,28.09
2022-09-03T15:33:29.352Z,27.45
2022-09-03T15:36:18.753Z,27.80
2022-09-03T15:39:05.874Z,28.06
2022-09-03T15:41:41.962Z,27.43
2022-09-03T15:44:19.417Z,28.25
2022-09-03T15:46:52.370Z,28.03
2022-09-03T15:49:24.892Z,27.46
2022-09-03T15:52:01.732Z,27.34
2022-09-03T15:54:31.542Z,27.98
2022-09-03T15:57:09.700Z,27.91
2022-09-03T15:59:49.258Z,27.60
2022-09-03T16:02:26.612Z,27.09
2022-09-03T16:05:06.159Z,27.12
2022-09-03T16:07:39.011Z,27.70
2022-09-03T16:10:26.606Z,27.59
2022-09-03T16:13:05.332Z,27.46
2022-09-03T16:15:47.352Z,27.43
2022-09-03T16:18:34.360Z,27.45
2022-09-03T16:21:26.182Z,27.58
2022-09-03T16:24:14.353Z,27.77
2022-09-03T16:26:50.696Z,27.73
2022-09-03T16:29:19.289Z,27.61
2022-09-03T16:32:09.765Z,28.64
2022-09-03T16:35:00.268Z,28.11
2022-09-03T16:37:51.962Z,28.87
2022-09-03T16:40:45.464Z,29.01
2022-09-03T16:43:39.510Z,29.22
2022-09-03T16:46:26.498Z,28.63
2022-09-03T16:49:16.896Z,29.24
2022-09-03T16:51:53.598Z,29.14
2022-09-03T16:54:27.689Z,29.47
2022-09-03T16:56:55.742Z,28.83
2022-09-03T16:59:39.734Z,28.85
2022-09-03T17:02:40.678Z,29.29
2022-09-03T17:05:20.572Z,29.33
2022-09-03T17:08:16.202Z,29.05
2022-09-03T17:11:08.982Z,29.44
2022-09-03T17:13:45.892Z,29.99
2022-09-03T17:16:24.471Z,30.45
2022-09-03T17:19:14.310Z,29.96
2022-09-03T17:22:03.032Z,29.62
2022-09-03T17:24:33.745Z,29.17
2022-09-03T17:27:15.524Z,28.91
2022-09-03T17:30:05.827Z,28.51
2022-09-03T17:32:57.335Z,29.04
2022-09-03T17:35:43.378Z,28.54
2022-09-03T17:38:30.503Z,28.61
2022-09-03T17:41:23.637Z,27.98
2022-09-03T17:44:15.038Z,27.57
2022-09-03T17:46:47.798Z,28.01
2022-09-03T17:49:23.823Z,27.61
2022-09-03T17:52:07.758Z,27.98
2022-09-03T17:54:41.312Z,28.35
2022-09-03T17:57:31.474Z,28.40
2022-09-03T18:00:02.613Z,27.93
2022-09-03T18:02:31.412Z,27.85
2022-09-03T18:05:18.052Z,27.88
2022-09-03T18:07:52.917Z,27.80
2022-09-03T18:10:43.931Z,27.23
2022-09-03T18:13:23.518Z,27.69
2022-09-03T18:16:16.987Z,27.50
2022-09-03T18:18:51.426Z,27.85
2022-09-03T18:21:40.697Z,27.90
2022-09-03T18:24:54.060Z,27.69
2022-09-03T18:27:40.244Z,27.44
2022-09-03T18:30:31.297Z,26.50
2022-09-03T18:33:17.083Z,27.42
2022-09-03T18:36:04.192Z,27.64
2022-09-03T18:38:55.295Z,27.41
2022-09-03T18:42:07.409Z,27.23
2022-09-03T18:45:22.877Z,26.10
2022-09-03T18:48:20.252Z,26.77
2022-09-03T18:51:20.804Z,26.80
2022-09-03T18:54:25.463Z,26.61
2022-09-03T18:57:11.728Z,26.61
2022-09-03T19:00:09.974Z,26.29
2022-09-03T19:03:06.204Z,26.28
2022-09-03T19:06:13.428Z,25.90
2022-09-03T19:09:20.774Z,26.49
2022-09-03T19:12:50.098Z,26.31
2022-09-03T19:15:48.060Z,26.01
2022-09-03T19:18:45.783Z,26.04
2022-09-03T19:21:59.926Z,26.32
2022-09-03T19:24:48.779Z,25.87
2022-09-03T19:28:00.149Z,25.63
2022-09-03T19:31:12.418Z,24.97
2022-09-03T19:34:03.812Z,24.77
2022-09-03T19:37:03.746Z,24.62
2022-09-03T19:40:14.124Z,25.05
2022-09-03T19:43:28.757Z,24.39
2022-09-03T19:46:38.996Z,23.94
2022-09-03T19:49:35.064Z,23.27
2022-09-03T19:52:39.012Z,23.29
2022-09-03T19:55:24.586Z,23.58
2022-09-03T19:58:41.547Z,23.51
2022-09-03T20:01:23.174Z,23.48
2022-09-03T20:04:09.836Z,23.79
2022-09-03T20:06:55.564Z,23.87
2022-09-03T20:09:42.174Z,23.91
2022-09-03T20:12:10.153Z,23.99
2022-09-03T20:14:37.691Z,24.02
2022-09-03T20:17:43.217Z,24.10
2022-09-03T20:20:25.039Z,23.77
2022-09-03T20:23:01.380Z,23.80
2022-09-03T20:25:53.239Z,23.79
2022-09-03T20:28:54.902Z,24.19
2022-09-03T20:31:40.084Z,24.14
2022-09-03T20:34:25.233Z,24.66
2022-09-03T20:37:42.623Z,24.28
2022-09-03T20:40:15.320Z,24.61
2022-09-03T20:43:02.223Z,24.63
2022-09-03T20:45:32.139Z,24.44
2022-09-03T20:48:25.415Z,23.94
2022-09-03T20:51:02.879Z,24.28
2022-09-03T20:53:35.597Z,24.11
2022-09-03T20:56:41.253Z,23.81
2022-09-03T20:59:26.603Z,23.49
2022-09-03T21:02:06.236Z,23.01
2022-09-03T21:04:53.244Z,23.65
2022-09-03T21:07:45.114Z,23.18
2022-09-03T21:10:38.188Z,23.98
2022-09-03T21:13:23.847Z,23.97
2022-09-03T21:16:24.693Z,23.62
2022-09-03T21:19:09.870Z,23.52
2022-09-03T21:21:48.858Z,23.75
2022-09-03T21:24:20.077Z,23.82
2022-09-03T21:26:52.293Z,22.69
2022-09-03T21:29:27.614Z,22.33
2022-09-03T21:32:09.818Z,22.58
2022-09-03T21:34:58.502Z,22.02
2022-09-03T21:37:25.383Z,22.92
2022-09-03T21:39:56.026Z,23.02
2022-09-03T21:42:44.671Z,22.81
2022-09-03T21:45:18.397Z,24.24
2022-09-03T21:47:49.126Z,23.53
2022-09-03T21:50:20.449Z,23.06
2022-09-03T21:52:59.326Z,23.51
2022-09-03T21:55:55.384Z,23.30
2022-09-03T21:59:00.708Z,23.69
2022-09-03T22:01:46.104Z,23.07
2022-09-03T22:04:13.094Z,22.91
2022-09-03T22:06:57.152Z,23.19
2022-09-03T22:09:41.323Z,22.80
2022-09-03T22:12:19.002Z,23.40
2022-09-03T22:14:49.121Z,22.95
2022-09-03T22:17:24.128Z,22.60
2022-09-03T22:19:51.114Z,22.39
2022-09-03T22:22:27.845Z,23.09
2022-09-03T22:25:05.983Z,23.06
2022-09-03T22:27:38.010Z,22.47
2022-09-03T22:30:12.385Z,21.32
2022-09-03T22:32:45.795Z,21.21
2022-09-03T22:35:22.175Z,21.49
2022-09-03T22:38:05.452Z,22.12
2022-09-03T22:40:43.472Z,22.58
2022-09-03T22:43:13.059Z,22.48
2022-09-03T22:46:03.207Z,22.42
2022-09-03T22:48:41.018Z,22.59
2022-09-03T22:51:09.353Z,23.62
2022-09-03T22:53:58.254Z,22.63
2022-09-03T22:56:25.372Z,22.38
2022-09-03T22:58:58.425Z,22.87
2022-09-03T23:01:31.632Z,22.13
2022-09-03T23:04:13.834Z,22.52
2022-09-03T23:06:51.160Z,22.39
2022-09-03T23:09:22.537Z,22.94
2022-09-03T23:12:01.666Z,22.89
2022-09-03T23:14:41.532Z,22.45
2022-09-03T23:17:13.479Z,22.25
2022-09-03T23:19:49.456Z,21.94
2022-09-03T23:22:38.960Z,22.27
2022-09-03T23:25:19.949Z,22.35
2022-09-03T23:27:53.790Z,21.04
2022-09-03T23:30:20.822Z,20.78
2022-09-03T23:32:53.609Z,21.04
2022-09-03T23:35:22.314Z,21.74
2022-09-03T23:38:04.479Z,22.26
2022-09-03T23:40:45.839Z,21.82
2022-09-03T23:43:39.087Z,22.06
2022-09-03T23:46:27.169Z,21.70
2022-09-03T23:49:13.234Z,21.94
2022-09-03T23:51:54.471Z,21.64
2022-09-03T23:54:47.519Z,22.76
2022-09-03T23:57:24.955Z,22.94
